Fort Madison, IA

1:24 PM CDT on August 27, 2016 (GMT -0500)
Denmark, Iowa | | Change Station

Elev 692 ft 40.71 °N, 91.33 °W | Updated 37 seconds ago

Mostly Cloudy
Mostly Cloudy
84.1 °F
Feels Like 92 °F
N
1.0
Wind Variable Wind from South
Gusts 6.0 mph

Today
High -- | Low -- °F
--% Chance of Precip.
Yesterday
High -- | Low -- °F
Precip. -- in
Pressure 30.02 in
Visibility 10.0 miles
Clouds Mostly Cloudy 2900 ft
Mostly Cloudy 3400 ft
Heat Index 92 °F
Dew Point 75 °F
Humidity 74%
Rainfall 0.00 in
Snow Depth Not available.
6:28 AM 7:44 PM
Waning Crescent, 22% visible
METAR KEOK 271815Z AUTO 27005G10KT 10SM BKN029 BKN034 29/22 A3002 RMK AO2
Pressure 30.02 in
Visibility 10.0 miles
Clouds Mostly Cloudy 2900 ft
Mostly Cloudy 3400 ft
Heat Index 92 °F
Dew Point 75 °F
Humidity 74%
Rainfall 0.00 in
Snow Depth Not available.
6:28 AM 7:44 PM
Waning Crescent, 22% visible
METAR KEOK 271815Z AUTO 27005G10KT 10SM BKN029 BKN034 29/22 A3002 RMK AO2

10-Day Weather Forecast

Almanac

Astronomy

Aug. 27, 2016 Rise Set
Actual Time
Civil Twilight
Nautical Twilight
Astronomical Twilight
Moon
Length of Visible Light
Length of Day
Tomorrow will be .
, % of the Moon is Illuminated

Today's Extremes

State Highs State Lows

Community

WunderPhotos

Upload Photos

1,935,396 photos uploaded!

WunderBlog® & News

Nearby

Air Quality

  Air Quality AQ Index Pollutant
Not available.

Snow Depth

Station Depth Elevation

Earthquake Activity

City Distance Mag. Time & Date
Minimum magnitude displayed is 2.5.

Coastal Water Temperatures

Place Temperature

Stations

Nearby Weather Stations

Station Location Temp. Windchill Dew Point Humidity Wind Precip. Elev Updated Type
                   

Watches & Warnings

There are currently no watches in effect.